sensor_id;sensor_type;location;lat;lon;timestamp;P1;durP1;ratioP1;P2;durP2;ratioP2
36923;SDS011;22841;50.252;18.688;2023-08-07T00:01:33;8.77;;;5.05;;
36923;SDS011;22841;50.252;18.688;2023-08-07T00:03:59;20.92;;;5.30;;
36923;SDS011;22841;50.252;18.688;2023-08-07T00:06:25;6.38;;;4.88;;
36923;SDS011;22841;50.252;18.688;2023-08-07T00:12:33;8.82;;;4.82;;
36923;SDS011;22841;50.252;18.688;2023-08-07T00:14:59;11.10;;;4.60;;
36923;SDS011;22841;50.252;18.688;2023-08-07T00:17:26;15.95;;;5.05;;
36923;SDS011;22841;50.252;18.688;2023-08-07T00:19:52;9.10;;;4.75;;
36923;SDS011;22841;50.252;18.688;2023-08-07T00:22:18;24.20;;;5.43;;
36923;SDS011;22841;50.252;18.688;2023-08-07T00:24:44;13.65;;;4.85;;
36923;SDS011;22841;50.252;18.688;2023-08-07T00:27:10;7.93;;;4.80;;
36923;SDS011;22841;50.252;18.688;2023-08-07T00:29:38;7.22;;;4.57;;
36923;SDS011;22841;50.252;18.688;2023-08-07T00:32:04;28.75;;;6.28;;
36923;SDS011;22841;50.252;18.688;2023-08-07T00:34:30;5.88;;;4.63;;
36923;SDS011;22841;50.252;18.688;2023-08-07T00:36:57;11.27;;;4.95;;
36923;SDS011;22841;50.252;18.688;2023-08-07T00:39:23;9.88;;;4.72;;
36923;SDS011;22841;50.252;18.688;2023-08-07T00:41:49;12.65;;;4.55;;
36923;SDS011;22841;50.252;18.688;2023-08-07T00:44:16;13.68;;;5.68;;
36923;SDS011;22841;50.252;18.688;2023-08-07T00:46:42;8.45;;;4.25;;
36923;SDS011;22841;50.252;18.688;2023-08-07T00:49:09;6.93;;;4.65;;
36923;SDS011;22841;50.252;18.688;2023-08-07T00:51:37;6.07;;;4.97;;
36923;SDS011;22841;50.252;18.688;2023-08-07T00:54:05;11.93;;;4.70;;
36923;SDS011;22841;50.252;18.688;2023-08-07T00:56:33;5.72;;;4.65;;
36923;SDS011;22841;50.252;18.688;2023-08-07T00:58:59;14.10;;;4.78;;
36923;SDS011;22841;50.252;18.688;2023-08-07T01:01:27;10.93;;;4.45;;
36923;SDS011;22841;50.252;18.688;2023-08-07T01:03:53;5.25;;;4.63;;
36923;SDS011;22841;50.252;18.688;2023-08-07T01:06:19;11.57;;;5.35;;
36923;SDS011;22841;50.252;18.688;2023-08-07T01:08:46;7.70;;;4.97;;
36923;SDS011;22841;50.252;18.688;2023-08-07T01:19:33;8.32;;;5.22;;
36923;SDS011;22841;50.252;18.688;2023-08-07T01:22:09;23.58;;;6.55;;
36923;SDS011;22841;50.252;18.688;2023-08-07T01:24:36;9.98;;;5.95;;
36923;SDS011;22841;50.252;18.688;2023-08-07T01:27:15;6.97;;;5.57;;
36923;SDS011;22841;50.252;18.688;2023-08-07T01:32:34;8.40;;;5.80;;
36923;SDS011;22841;50.252;18.688;2023-08-07T01:35:16;7.50;;;6.50;;
36923;SDS011;22841;50.252;18.688;2023-08-07T01:37:46;15.05;;;5.68;;
36923;SDS011;22841;50.252;18.688;2023-08-07T01:40:13;8.40;;;5.75;;
36923;SDS011;22841;50.252;18.688;2023-08-07T01:42:41;8.68;;;6.03;;
36923;SDS011;22841;50.252;18.688;2023-08-07T01:45:08;11.43;;;6.13;;
36923;SDS011;22841;50.252;18.688;2023-08-07T01:47:35;13.77;;;6.43;;
36923;SDS011;22841;50.252;18.688;2023-08-07T01:50:01;11.38;;;6.25;;
36923;SDS011;22841;50.252;18.688;2023-08-07T01:52:27;14.43;;;7.30;;
36923;SDS011;22841;50.252;18.688;2023-08-07T01:55:19;7.07;;;6.38;;
36923;SDS011;22841;50.252;18.688;2023-08-07T01:58:10;8.35;;;7.22;;
36923;SDS011;22841;50.252;18.688;2023-08-07T02:01:02;7.50;;;6.25;;
36923;SDS011;22841;50.252;18.688;2023-08-07T02:03:53;7.60;;;6.40;;
36923;SDS011;22841;50.252;18.688;2023-08-07T02:06:44;8.77;;;6.88;;
36923;SDS011;22841;50.252;18.688;2023-08-07T02:09:35;10.13;;;7.35;;
36923;SDS011;22841;50.252;18.688;2023-08-07T02:12:26;8.95;;;7.82;;
36923;SDS011;22841;50.252;18.688;2023-08-07T02:15:17;9.13;;;8.15;;
36923;SDS011;22841;50.252;18.688;2023-08-07T02:17:43;8.70;;;7.80;;
36923;SDS011;22841;50.252;18.688;2023-08-07T02:20:09;16.73;;;7.63;;
36923;SDS011;22841;50.252;18.688;2023-08-07T02:22:36;9.02;;;7.47;;
36923;SDS011;22841;50.252;18.688;2023-08-07T02:25:02;16.05;;;8.88;;
36923;SDS011;22841;50.252;18.688;2023-08-07T02:27:28;10.23;;;7.50;;
36923;SDS011;22841;50.252;18.688;2023-08-07T02:39:26;8.15;;;6.20;;
36923;SDS011;22841;50.252;18.688;2023-08-07T02:41:52;10.15;;;6.35;;
36923;SDS011;22841;50.252;18.688;2023-08-07T02:44:18;9.57;;;6.53;;
36923;SDS011;22841;50.252;18.688;2023-08-07T02:46:45;8.05;;;5.97;;
36923;SDS011;22841;50.252;18.688;2023-08-07T02:49:11;8.20;;;6.60;;
36923;SDS011;22841;50.252;18.688;2023-08-07T02:51:38;8.18;;;7.00;;
36923;SDS011;22841;50.252;18.688;2023-08-07T02:54:04;6.85;;;6.25;;
36923;SDS011;22841;50.252;18.688;2023-08-07T02:56:30;10.07;;;5.63;;
36923;SDS011;22841;50.252;18.688;2023-08-07T02:58:56;7.80;;;6.85;;
36923;SDS011;22841;50.252;18.688;2023-08-07T03:01:23;7.43;;;6.65;;
36923;SDS011;22841;50.252;18.688;2023-08-07T03:03:49;8.15;;;6.47;;
36923;SDS011;22841;50.252;18.688;2023-08-07T03:06:16;9.50;;;7.43;;
36923;SDS011;22841;50.252;18.688;2023-08-07T03:08:42;8.80;;;7.47;;
36923;SDS011;22841;50.252;18.688;2023-08-07T03:11:08;10.98;;;8.20;;
36923;SDS011;22841;50.252;18.688;2023-08-07T03:13:34;10.93;;;8.13;;
36923;SDS011;22841;50.252;18.688;2023-08-07T03:16:26;11.98;;;7.68;;
36923;SDS011;22841;50.252;18.688;2023-08-07T03:18:52;11.50;;;7.40;;
36923;SDS011;22841;50.252;18.688;2023-08-07T03:21:18;8.25;;;6.75;;
36923;SDS011;22841;50.252;18.688;2023-08-07T03:23:44;7.32;;;6.18;;
36923;SDS011;22841;50.252;18.688;2023-08-07T03:26:12;9.80;;;6.68;;
36923;SDS011;22841;50.252;18.688;2023-08-07T03:28:38;8.93;;;6.70;;
36923;SDS011;22841;50.252;18.688;2023-08-07T03:31:05;7.60;;;5.93;;
36923;SDS011;22841;50.252;18.688;2023-08-07T03:33:32;8.73;;;6.55;;
36923;SDS011;22841;50.252;18.688;2023-08-07T03:35:58;7.93;;;5.88;;
36923;SDS011;22841;50.252;18.688;2023-08-07T03:38:24;11.45;;;6.55;;
36923;SDS011;22841;50.252;18.688;2023-08-07T03:40:51;6.75;;;6.05;;
36923;SDS011;22841;50.252;18.688;2023-08-07T03:43:17;12.98;;;5.90;;
36923;SDS011;22841;50.252;18.688;2023-08-07T03:45:43;7.60;;;6.35;;
36923;SDS011;22841;50.252;18.688;2023-08-07T03:48:09;9.10;;;6.22;;
36923;SDS011;22841;50.252;18.688;2023-08-07T03:50:35;10.80;;;6.07;;
36923;SDS011;22841;50.252;18.688;2023-08-07T03:53:03;11.95;;;6.18;;
36923;SDS011;22841;50.252;18.688;2023-08-07T03:55:32;18.95;;;6.20;;
36923;SDS011;22841;50.252;18.688;2023-08-07T03:57:58;13.38;;;7.07;;
36923;SDS011;22841;50.252;18.688;2023-08-07T04:00:24;7.53;;;5.57;;
36923;SDS011;22841;50.252;18.688;2023-08-07T04:02:51;7.35;;;6.25;;
36923;SDS011;22841;50.252;18.688;2023-08-07T04:05:17;9.05;;;5.30;;
36923;SDS011;22841;50.252;18.688;2023-08-07T04:07:43;8.18;;;5.30;;
36923;SDS011;22841;50.252;18.688;2023-08-07T04:10:09;10.32;;;5.18;;
36923;SDS011;22841;50.252;18.688;2023-08-07T04:12:35;15.07;;;5.53;;
36923;SDS011;22841;50.252;18.688;2023-08-07T04:15:01;7.00;;;5.65;;
36923;SDS011;22841;50.252;18.688;2023-08-07T04:17:28;11.57;;;5.22;;
36923;SDS011;22841;50.252;18.688;2023-08-07T04:19:54;9.55;;;5.57;;
36923;SDS011;22841;50.252;18.688;2023-08-07T04:22:20;11.30;;;6.07;;
36923;SDS011;22841;50.252;18.688;2023-08-07T04:24:46;13.55;;;5.22;;
36923;SDS011;22841;50.252;18.688;2023-08-07T04:27:12;10.40;;;5.22;;
36923;SDS011;22841;50.252;18.688;2023-08-07T04:29:38;11.40;;;5.65;;
36923;SDS011;22841;50.252;18.688;2023-08-07T04:32:05;10.98;;;4.53;;
36923;SDS011;22841;50.252;18.688;2023-08-07T04:34:31;16.63;;;5.30;;
36923;SDS011;22841;50.252;18.688;2023-08-07T04:36:57;9.55;;;3.97;;
36923;SDS011;22841;50.252;18.688;2023-08-07T04:39:23;4.30;;;3.25;;
36923;SDS011;22841;50.252;18.688;2023-08-07T04:41:50;4.65;;;3.38;;
36923;SDS011;22841;50.252;18.688;2023-08-07T04:44:16;6.10;;;3.20;;
36923;SDS011;22841;50.252;18.688;2023-08-07T04:46:42;8.32;;;4.55;;
36923;SDS011;22841;50.252;18.688;2023-08-07T04:49:08;4.22;;;2.42;;
36923;SDS011;22841;50.252;18.688;2023-08-07T04:51:34;4.90;;;2.22;;
36923;SDS011;22841;50.252;18.688;2023-08-07T04:54:01;2.15;;;1.70;;
36923;SDS011;22841;50.252;18.688;2023-08-07T04:56:27;3.95;;;1.73;;
36923;SDS011;22841;50.252;18.688;2023-08-07T04:58:53;8.73;;;2.00;;
36923;SDS011;22841;50.252;18.688;2023-08-07T05:01:19;9.10;;;2.15;;
36923;SDS011;22841;50.252;18.688;2023-08-07T05:03:46;2.33;;;1.73;;
36923;SDS011;22841;50.252;18.688;2023-08-07T05:06:12;2.08;;;1.88;;
36923;SDS011;22841;50.252;18.688;2023-08-07T05:08:38;2.88;;;1.95;;
36923;SDS011;22841;50.252;18.688;2023-08-07T05:11:04;12.30;;;2.17;;
36923;SDS011;22841;50.252;18.688;2023-08-07T05:13:30;6.63;;;1.67;;
36923;SDS011;22841;50.252;18.688;2023-08-07T05:18:48;2.13;;;1.48;;
36923;SDS011;22841;50.252;18.688;2023-08-07T05:21:15;1.65;;;1.42;;
36923;SDS011;22841;50.252;18.688;2023-08-07T05:23:41;5.38;;;1.23;;
36923;SDS011;22841;50.252;18.688;2023-08-07T05:26:07;1.95;;;1.35;;
36923;SDS011;22841;50.252;18.688;2023-08-07T05:28:33;2.08;;;0.80;;
36923;SDS011;22841;50.252;18.688;2023-08-07T05:30:59;1.77;;;0.90;;
36923;SDS011;22841;50.252;18.688;2023-08-07T05:33:25;9.23;;;1.15;;
36923;SDS011;22841;50.252;18.688;2023-08-07T05:35:51;1.45;;;1.10;;
36923;SDS011;22841;50.252;18.688;2023-08-07T05:38:18;0.93;;;0.88;;
36923;SDS011;22841;50.252;18.688;2023-08-07T05:40:44;4.82;;;1.00;;
36923;SDS011;22841;50.252;18.688;2023-08-07T05:43:10;14.85;;;1.30;;
36923;SDS011;22841;50.252;18.688;2023-08-07T05:45:38;6.18;;;1.52;;
36923;SDS011;22841;50.252;18.688;2023-08-07T05:48:04;2.58;;;1.02;;
36923;SDS011;22841;50.252;18.688;2023-08-07T05:50:31;16.67;;;3.60;;
36923;SDS011;22841;50.252;18.688;2023-08-07T05:52:58;5.28;;;1.70;;
36923;SDS011;22841;50.252;18.688;2023-08-07T05:55:24;4.97;;;1.42;;
36923;SDS011;22841;50.252;18.688;2023-08-07T05:57:50;8.02;;;1.30;;
36923;SDS011;22841;50.252;18.688;2023-08-07T06:00:16;3.60;;;1.55;;
36923;SDS011;22841;50.252;18.688;2023-08-07T06:02:43;1.80;;;1.35;;
36923;SDS011;22841;50.252;18.688;2023-08-07T06:05:09;7.63;;;1.30;;
36923;SDS011;22841;50.252;18.688;2023-08-07T06:07:38;1.83;;;1.23;;
36923;SDS011;22841;50.252;18.688;2023-08-07T06:10:04;1.40;;;1.25;;
36923;SDS011;22841;50.252;18.688;2023-08-07T06:12:31;2.55;;;1.02;;
36923;SDS011;22841;50.252;18.688;2023-08-07T06:14:57;7.85;;;1.38;;
36923;SDS011;22841;50.252;18.688;2023-08-07T06:17:23;3.92;;;1.10;;
36923;SDS011;22841;50.252;18.688;2023-08-07T06:19:49;4.57;;;1.20;;
36923;SDS011;22841;50.252;18.688;2023-08-07T06:22:15;1.25;;;1.15;;
36923;SDS011;22841;50.252;18.688;2023-08-07T06:24:42;3.88;;;0.90;;
36923;SDS011;22841;50.252;18.688;2023-08-07T06:27:08;2.22;;;1.08;;
36923;SDS011;22841;50.252;18.688;2023-08-07T06:29:34;3.38;;;1.10;;
36923;SDS011;22841;50.252;18.688;2023-08-07T06:32:00;7.97;;;1.13;;
36923;SDS011;22841;50.252;18.688;2023-08-07T06:34:26;1.00;;;0.90;;
36923;SDS011;22841;50.252;18.688;2023-08-07T06:36:53;1.63;;;0.70;;
36923;SDS011;22841;50.252;18.688;2023-08-07T06:39:19;2.45;;;0.80;;
36923;SDS011;22841;50.252;18.688;2023-08-07T06:41:45;1.40;;;0.50;;
36923;SDS011;22841;50.252;18.688;2023-08-07T06:44:11;2.47;;;0.60;;
36923;SDS011;22841;50.252;18.688;2023-08-07T06:46:37;2.00;;;0.70;;
36923;SDS011;22841;50.252;18.688;2023-08-07T06:49:03;2.05;;;0.65;;
36923;SDS011;22841;50.252;18.688;2023-08-07T06:51:30;5.18;;;0.77;;
36923;SDS011;22841;50.252;18.688;2023-08-07T06:53:56;0.77;;;0.70;;
36923;SDS011;22841;50.252;18.688;2023-08-07T06:56:22;0.85;;;0.60;;
36923;SDS011;22841;50.252;18.688;2023-08-07T06:58:48;0.88;;;0.70;;
36923;SDS011;22841;50.252;18.688;2023-08-07T07:01:15;0.70;;;0.70;;
36923;SDS011;22841;50.252;18.688;2023-08-07T07:03:41;0.52;;;0.45;;
36923;SDS011;22841;50.252;18.688;2023-08-07T07:06:07;3.25;;;0.70;;
36923;SDS011;22841;50.252;18.688;2023-08-07T07:08:33;6.78;;;1.70;;
36923;SDS011;22841;50.252;18.688;2023-08-07T07:11:00;0.70;;;0.60;;
36923;SDS011;22841;50.252;18.688;2023-08-07T07:13:26;0.60;;;0.60;;
36923;SDS011;22841;50.252;18.688;2023-08-07T07:15:53;1.63;;;0.75;;
36923;SDS011;22841;50.252;18.688;2023-08-07T07:22:01;1.75;;;0.73;;
36923;SDS011;22841;50.252;18.688;2023-08-07T07:24:27;2.80;;;0.80;;
36923;SDS011;22841;50.252;18.688;2023-08-07T07:26:53;1.08;;;0.57;;
36923;SDS011;22841;50.252;18.688;2023-08-07T07:29:19;1.15;;;0.60;;
36923;SDS011;22841;50.252;18.688;2023-08-07T07:31:46;3.70;;;0.70;;
36923;SDS011;22841;50.252;18.688;2023-08-07T07:34:12;2.25;;;0.73;;
36923;SDS011;22841;50.252;18.688;2023-08-07T07:36:38;0.90;;;0.75;;
36923;SDS011;22841;50.252;18.688;2023-08-07T07:39:05;2.20;;;0.80;;
36923;SDS011;22841;50.252;18.688;2023-08-07T07:41:31;1.30;;;0.70;;
36923;SDS011;22841;50.252;18.688;2023-08-07T07:43:57;3.13;;;0.77;;
36923;SDS011;22841;50.252;18.688;2023-08-07T07:46:23;1.08;;;0.70;;
36923;SDS011;22841;50.252;18.688;2023-08-07T07:48:49;3.28;;;0.80;;
36923;SDS011;22841;50.252;18.688;2023-08-07T07:51:15;2.08;;;0.77;;
36923;SDS011;22841;50.252;18.688;2023-08-07T07:53:41;1.23;;;0.90;;
36923;SDS011;22841;50.252;18.688;2023-08-07T07:56:08;6.18;;;1.00;;
36923;SDS011;22841;50.252;18.688;2023-08-07T07:58:34;2.00;;;0.77;;
36923;SDS011;22841;50.252;18.688;2023-08-07T08:01:00;2.17;;;0.82;;
36923;SDS011;22841;50.252;18.688;2023-08-07T08:03:26;2.10;;;0.75;;
36923;SDS011;22841;50.252;18.688;2023-08-07T08:05:53;1.05;;;0.93;;
36923;SDS011;22841;50.252;18.688;2023-08-07T08:08:19;1.70;;;1.00;;
36923;SDS011;22841;50.252;18.688;2023-08-07T08:10:45;0.90;;;0.70;;
36923;SDS011;22841;50.252;18.688;2023-08-07T08:13:14;3.95;;;1.00;;
36923;SDS011;22841;50.252;18.688;2023-08-07T08:15:40;3.03;;;1.10;;
36923;SDS011;22841;50.252;18.688;2023-08-07T08:18:06;1.17;;;1.08;;
36923;SDS011;22841;50.252;18.688;2023-08-07T08:20:32;2.10;;;1.00;;
36923;SDS011;22841;50.252;18.688;2023-08-07T08:22:58;1.55;;;1.02;;
36923;SDS011;22841;50.252;18.688;2023-08-07T08:25:25;1.85;;;0.90;;
36923;SDS011;22841;50.252;18.688;2023-08-07T08:27:51;2.55;;;1.10;;
36923;SDS011;22841;50.252;18.688;2023-08-07T08:30:17;2.17;;;0.90;;
36923;SDS011;22841;50.252;18.688;2023-08-07T08:32:43;7.05;;;1.17;;
36923;SDS011;22841;50.252;18.688;2023-08-07T08:35:09;0.80;;;0.80;;
36923;SDS011;22841;50.252;18.688;2023-08-07T08:37:35;1.63;;;0.93;;
36923;SDS011;22841;50.252;18.688;2023-08-07T08:40:02;1.23;;;1.00;;
36923;SDS011;22841;50.252;18.688;2023-08-07T08:42:28;1.45;;;1.20;;
36923;SDS011;22841;50.252;18.688;2023-08-07T08:44:55;3.00;;;1.20;;
36923;SDS011;22841;50.252;18.688;2023-08-07T08:47:22;1.73;;;0.95;;
36923;SDS011;22841;50.252;18.688;2023-08-07T08:49:50;2.80;;;1.10;;
36923;SDS011;22841;50.252;18.688;2023-08-07T08:52:26;4.13;;;1.40;;
36923;SDS011;22841;50.252;18.688;2023-08-07T08:54:53;1.30;;;1.20;;
36923;SDS011;22841;50.252;18.688;2023-08-07T08:57:21;1.17;;;1.10;;
36923;SDS011;22841;50.252;18.688;2023-08-07T08:59:48;1.50;;;1.40;;
36923;SDS011;22841;50.252;18.688;2023-08-07T09:02:15;1.40;;;1.25;;
36923;SDS011;22841;50.252;18.688;2023-08-07T09:04:42;3.50;;;1.20;;
36923;SDS011;22841;50.252;18.688;2023-08-07T09:07:10;2.83;;;1.23;;
36923;SDS011;22841;50.252;18.688;2023-08-07T09:10:05;3.17;;;1.40;;
36923;SDS011;22841;50.252;18.688;2023-08-07T09:13:01;3.83;;;1.23;;
36923;SDS011;22841;50.252;18.688;2023-08-07T09:15:55;2.25;;;1.27;;
36923;SDS011;22841;50.252;18.688;2023-08-07T09:18:50;5.30;;;1.40;;
36923;SDS011;22841;50.252;18.688;2023-08-07T09:21:41;2.07;;;1.40;;
36923;SDS011;22841;50.252;18.688;2023-08-07T09:24:32;1.58;;;1.33;;
36923;SDS011;22841;50.252;18.688;2023-08-07T09:26:58;2.75;;;1.60;;
36923;SDS011;22841;50.252;18.688;2023-08-07T09:29:25;3.28;;;1.30;;
36923;SDS011;22841;50.252;18.688;2023-08-07T09:31:56;1.05;;;1.05;;
36923;SDS011;22841;50.252;18.688;2023-08-07T09:34:22;2.55;;;1.60;;
36923;SDS011;22841;50.252;18.688;2023-08-07T09:36:48;2.88;;;1.55;;
36923;SDS011;22841;50.252;18.688;2023-08-07T09:39:14;3.63;;;1.60;;
36923;SDS011;22841;50.252;18.688;2023-08-07T09:41:40;3.20;;;1.70;;
36923;SDS011;22841;50.252;18.688;2023-08-07T09:44:07;1.58;;;1.45;;
36923;SDS011;22841;50.252;18.688;2023-08-07T09:46:40;1.92;;;1.67;;
36923;SDS011;22841;50.252;18.688;2023-08-07T09:49:07;3.38;;;1.80;;
36923;SDS011;22841;50.252;18.688;2023-08-07T09:51:41;5.38;;;1.58;;
36923;SDS011;22841;50.252;18.688;2023-08-07T09:54:11;1.52;;;1.38;;
36923;SDS011;22841;50.252;18.688;2023-08-07T09:56:37;3.10;;;1.55;;
36923;SDS011;22841;50.252;18.688;2023-08-07T09:59:05;2.88;;;2.10;;
36923;SDS011;22841;50.252;18.688;2023-08-07T10:01:33;4.70;;;2.58;;
36923;SDS011;22841;50.252;18.688;2023-08-07T10:04:04;7.50;;;2.95;;
36923;SDS011;22841;50.252;18.688;2023-08-07T10:12:43;4.53;;;3.13;;
36923;SDS011;22841;50.252;18.688;2023-08-07T10:15:14;9.05;;;3.22;;
36923;SDS011;22841;50.252;18.688;2023-08-07T10:17:40;7.93;;;3.10;;
36923;SDS011;22841;50.252;18.688;2023-08-07T10:20:07;7.60;;;3.53;;
36923;SDS011;22841;50.252;18.688;2023-08-07T10:22:33;7.50;;;3.88;;
36923;SDS011;22841;50.252;18.688;2023-08-07T10:25:03;8.70;;;3.45;;
36923;SDS011;22841;50.252;18.688;2023-08-07T10:27:32;7.20;;;3.50;;
36923;SDS011;22841;50.252;18.688;2023-08-07T10:30:02;4.75;;;2.90;;
36923;SDS011;22841;50.252;18.688;2023-08-07T10:32:31;7.45;;;3.42;;
36923;SDS011;22841;50.252;18.688;2023-08-07T10:34:58;4.05;;;3.40;;
36923;SDS011;22841;50.252;18.688;2023-08-07T10:37:40;7.43;;;3.35;;
36923;SDS011;22841;50.252;18.688;2023-08-07T10:40:09;6.47;;;3.55;;
36923;SDS011;22841;50.252;18.688;2023-08-07T10:43:19;5.35;;;3.72;;
36923;SDS011;22841;50.252;18.688;2023-08-07T10:45:37;4.40;;;3.33;;
36923;SDS011;22841;50.252;18.688;2023-08-07T10:50:34;3.20;;;2.90;;
36923;SDS011;22841;50.252;18.688;2023-08-07T10:53:01;11.55;;;3.42;;
36923;SDS011;22841;50.252;18.688;2023-08-07T10:55:42;3.95;;;3.30;;
36923;SDS011;22841;50.252;18.688;2023-08-07T11:03:54;8.55;;;3.20;;
36923;SDS011;22841;50.252;18.688;2023-08-07T11:06:29;6.88;;;2.90;;
36923;SDS011;22841;50.252;18.688;2023-08-07T11:08:59;12.77;;;3.55;;
36923;SDS011;22841;50.252;18.688;2023-08-07T11:11:26;9.55;;;2.88;;
36923;SDS011;22841;50.252;18.688;2023-08-07T11:13:53;9.00;;;3.58;;
36923;SDS011;22841;50.252;18.688;2023-08-07T11:16:19;10.52;;;3.08;;
36923;SDS011;22841;50.252;18.688;2023-08-07T11:18:48;7.40;;;3.78;;
36923;SDS011;22841;50.252;18.688;2023-08-07T11:21:15;6.55;;;4.05;;
36923;SDS011;22841;50.252;18.688;2023-08-07T11:23:41;12.07;;;4.25;;
36923;SDS011;22841;50.252;18.688;2023-08-07T11:26:09;19.55;;;7.57;;
36923;SDS011;22841;50.252;18.688;2023-08-07T11:28:35;10.35;;;4.55;;
36923;SDS011;22841;50.252;18.688;2023-08-07T11:31:02;6.57;;;3.85;;
36923;SDS011;22841;50.252;18.688;2023-08-07T11:33:28;13.90;;;5.18;;
36923;SDS011;22841;50.252;18.688;2023-08-07T11:35:55;7.07;;;3.40;;
36923;SDS011;22841;50.252;18.688;2023-08-07T11:38:31;6.35;;;4.07;;
36923;SDS011;22841;50.252;18.688;2023-08-07T11:41:03;6.70;;;2.92;;
36923;SDS011;22841;50.252;18.688;2023-08-07T11:43:31;6.65;;;3.20;;
36923;SDS011;22841;50.252;18.688;2023-08-07T11:45:59;4.03;;;3.30;;
36923;SDS011;22841;50.252;18.688;2023-08-07T11:48:30;5.80;;;2.97;;
36923;SDS011;22841;50.252;18.688;2023-08-07T11:50:57;6.97;;;3.47;;
36923;SDS011;22841;50.252;18.688;2023-08-07T11:53:24;8.40;;;3.42;;
36923;SDS011;22841;50.252;18.688;2023-08-07T11:55:57;3.85;;;3.30;;
36923;SDS011;22841;50.252;18.688;2023-08-07T11:58:25;5.63;;;3.30;;
36923;SDS011;22841;50.252;18.688;2023-08-07T12:00:53;8.93;;;3.25;;
36923;SDS011;22841;50.252;18.688;2023-08-07T12:03:38;7.22;;;3.22;;
36923;SDS011;22841;50.252;18.688;2023-08-07T12:06:08;14.90;;;4.30;;
36923;SDS011;22841;50.252;18.688;2023-08-07T12:08:36;4.47;;;2.50;;
36923;SDS011;22841;50.252;18.688;2023-08-07T12:11:04;4.07;;;2.80;;
36923;SDS011;22841;50.252;18.688;2023-08-07T12:13:32;5.88;;;3.15;;
36923;SDS011;22841;50.252;18.688;2023-08-07T12:16:01;6.05;;;2.95;;
36923;SDS011;22841;50.252;18.688;2023-08-07T12:18:30;6.18;;;2.75;;
36923;SDS011;22841;50.252;18.688;2023-08-07T12:20:58;8.13;;;2.78;;
36923;SDS011;22841;50.252;18.688;2023-08-07T12:23:25;4.60;;;2.92;;
36923;SDS011;22841;50.252;18.688;2023-08-07T12:25:52;4.05;;;2.90;;
36923;SDS011;22841;50.252;18.688;2023-08-07T12:28:19;5.05;;;3.38;;
36923;SDS011;22841;50.252;18.688;2023-08-07T12:30:46;7.80;;;2.85;;
36923;SDS011;22841;50.252;18.688;2023-08-07T12:33:13;4.15;;;2.88;;
36923;SDS011;22841;50.252;18.688;2023-08-07T12:35:40;5.20;;;2.67;;
36923;SDS011;22841;50.252;18.688;2023-08-07T12:38:08;6.18;;;2.63;;
36923;SDS011;22841;50.252;18.688;2023-08-07T12:40:35;6.00;;;3.10;;
36923;SDS011;22841;50.252;18.688;2023-08-07T12:43:03;4.47;;;2.28;;
36923;SDS011;22841;50.252;18.688;2023-08-07T12:45:30;5.80;;;3.20;;
36923;SDS011;22841;50.252;18.688;2023-08-07T12:47:56;4.35;;;2.80;;
36923;SDS011;22841;50.252;18.688;2023-08-07T12:50:23;8.32;;;3.00;;
36923;SDS011;22841;50.252;18.688;2023-08-07T12:52:49;5.55;;;2.88;;
36923;SDS011;22841;50.252;18.688;2023-08-07T12:55:15;3.63;;;2.60;;
36923;SDS011;22841;50.252;18.688;2023-08-07T12:57:42;4.00;;;2.47;;
36923;SDS011;22841;50.252;18.688;2023-08-07T13:00:09;3.92;;;2.60;;
36923;SDS011;22841;50.252;18.688;2023-08-07T13:02:39;3.70;;;2.45;;
36923;SDS011;22841;50.252;18.688;2023-08-07T13:05:06;4.72;;;2.33;;
36923;SDS011;22841;50.252;18.688;2023-08-07T13:07:34;2.50;;;2.30;;
36923;SDS011;22841;50.252;18.688;2023-08-07T13:10:00;2.75;;;2.00;;
36923;SDS011;22841;50.252;18.688;2023-08-07T13:12:27;2.42;;;2.10;;
36923;SDS011;22841;50.252;18.688;2023-08-07T13:14:53;5.30;;;2.78;;
36923;SDS011;22841;50.252;18.688;2023-08-07T13:17:19;3.30;;;2.50;;
36923;SDS011;22841;50.252;18.688;2023-08-07T13:19:45;2.58;;;2.25;;
36923;SDS011;22841;50.252;18.688;2023-08-07T13:22:11;3.30;;;2.08;;
36923;SDS011;22841;50.252;18.688;2023-08-07T13:24:37;4.70;;;2.30;;
36923;SDS011;22841;50.252;18.688;2023-08-07T13:27:04;6.93;;;2.90;;
36923;SDS011;22841;50.252;18.688;2023-08-07T13:29:30;4.40;;;3.03;;
36923;SDS011;22841;50.252;18.688;2023-08-07T13:31:56;5.15;;;2.35;;
36923;SDS011;22841;50.252;18.688;2023-08-07T13:34:22;3.85;;;2.97;;
36923;SDS011;22841;50.252;18.688;2023-08-07T13:36:49;4.47;;;2.50;;
36923;SDS011;22841;50.252;18.688;2023-08-07T13:39:15;13.93;;;3.63;;
36923;SDS011;22841;50.252;18.688;2023-08-07T13:41:42;6.03;;;2.78;;
36923;SDS011;22841;50.252;18.688;2023-08-07T13:44:08;6.55;;;4.03;;
36923;SDS011;22841;50.252;18.688;2023-08-07T13:46:35;6.30;;;3.45;;
36923;SDS011;22841;50.252;18.688;2023-08-07T13:49:01;5.05;;;3.20;;
36923;SDS011;22841;50.252;18.688;2023-08-07T13:51:27;8.80;;;3.55;;
36923;SDS011;22841;50.252;18.688;2023-08-07T13:53:53;9.38;;;3.90;;
36923;SDS011;22841;50.252;18.688;2023-08-07T13:56:20;7.93;;;3.35;;
36923;SDS011;22841;50.252;18.688;2023-08-07T13:58:46;5.70;;;3.45;;
36923;SDS011;22841;50.252;18.688;2023-08-07T14:01:12;5.20;;;3.58;;
36923;SDS011;22841;50.252;18.688;2023-08-07T14:03:39;6.53;;;3.83;;
36923;SDS011;22841;50.252;18.688;2023-08-07T14:06:05;6.72;;;4.18;;
36923;SDS011;22841;50.252;18.688;2023-08-07T14:08:31;6.80;;;3.42;;
36923;SDS011;22841;50.252;18.688;2023-08-07T14:10:58;7.20;;;3.65;;
36923;SDS011;22841;50.252;18.688;2023-08-07T14:13:24;4.30;;;3.30;;
36923;SDS011;22841;50.252;18.688;2023-08-07T14:15:50;7.80;;;3.25;;
36923;SDS011;22841;50.252;18.688;2023-08-07T14:18:16;5.47;;;3.50;;
36923;SDS011;22841;50.252;18.688;2023-08-07T14:20:43;7.10;;;2.92;;
36923;SDS011;22841;50.252;18.688;2023-08-07T14:23:09;3.95;;;3.00;;
36923;SDS011;22841;50.252;18.688;2023-08-07T14:25:35;8.15;;;3.53;;
36923;SDS011;22841;50.252;18.688;2023-08-07T14:28:01;4.03;;;3.53;;
36923;SDS011;22841;50.252;18.688;2023-08-07T14:30:29;4.20;;;2.90;;
36923;SDS011;22841;50.252;18.688;2023-08-07T14:32:55;5.82;;;3.25;;
36923;SDS011;22841;50.252;18.688;2023-08-07T14:35:21;5.80;;;3.20;;
36923;SDS011;22841;50.252;18.688;2023-08-07T14:37:47;8.25;;;3.88;;
36923;SDS011;22841;50.252;18.688;2023-08-07T14:40:14;4.40;;;3.25;;
36923;SDS011;22841;50.252;18.688;2023-08-07T14:42:40;7.82;;;3.00;;
36923;SDS011;22841;50.252;18.688;2023-08-07T14:45:06;4.18;;;3.13;;
36923;SDS011;22841;50.252;18.688;2023-08-07T14:47:33;10.98;;;3.30;;
36923;SDS011;22841;50.252;18.688;2023-08-07T14:49:59;5.95;;;3.03;;
36923;SDS011;22841;50.252;18.688;2023-08-07T14:52:25;7.43;;;3.78;;
36923;SDS011;22841;50.252;18.688;2023-08-07T14:54:51;7.53;;;3.20;;
36923;SDS011;22841;50.252;18.688;2023-08-07T14:57:21;11.60;;;4.22;;
36923;SDS011;22841;50.252;18.688;2023-08-07T14:59:47;3.92;;;3.50;;
36923;SDS011;22841;50.252;18.688;2023-08-07T15:02:13;7.90;;;3.38;;
36923;SDS011;22841;50.252;18.688;2023-08-07T15:04:40;5.72;;;2.75;;
36923;SDS011;22841;50.252;18.688;2023-08-07T15:07:06;4.25;;;3.28;;
36923;SDS011;22841;50.252;18.688;2023-08-07T15:09:32;6.70;;;3.78;;
36923;SDS011;22841;50.252;18.688;2023-08-07T15:11:58;5.85;;;3.45;;
36923;SDS011;22841;50.252;18.688;2023-08-07T15:14:24;6.10;;;3.67;;
36923;SDS011;22841;50.252;18.688;2023-08-07T15:16:51;11.57;;;4.57;;
36923;SDS011;22841;50.252;18.688;2023-08-07T15:19:17;5.13;;;3.45;;
36923;SDS011;22841;50.252;18.688;2023-08-07T15:21:43;9.68;;;3.60;;
36923;SDS011;22841;50.252;18.688;2023-08-07T15:24:09;10.02;;;3.95;;